Time;durP1;ratioP1;P1;durP2;ratioP2;P2;SDS_P1;SDS_P2;PMS_P1;PMS_P2;Temp;Humidity;BMP_temperature;BMP_pressure;BME280_temperature;BME280_humidity;BME280_pressure;Samples;Min_cycle;Max_cycle;Signal;HPM_P1;HPM_P2
2022/08/29 00:00:41;;;;;;;;;;;;;;;23.29;69.24;97104.03;180301;293;663320;-51
2022/08/29 00:01:43;;;;;;;;;;;;;;;23.29;69.25;97100.69;179737;293;664577;-44
2022/08/29 00:02:45;;;;;;;;;;;;;;;23.29;69.20;97102.66;179777;293;661385;-44
2022/08/29 00:03:47;;;;;;;;;;;;;;;23.28;69.22;97105.16;179935;293;662446;-43
2022/08/29 00:04:49;;;;;;;;;;;;;;;23.27;69.19;97103.55;180029;293;663558;-45
2022/08/29 00:05:51;;;;;;;;;;;;;;;23.25;69.21;97110.80;179971;293;661909;-46
2022/08/29 00:06:53;;;;;;;;;;;;;;;23.25;69.21;97105.27;180364;293;661668;-43
2022/08/29 00:07:56;;;;;;;;;;;;;;;23.23;69.22;97104.81;180316;293;663931;-45
2022/08/29 00:08:58;;;;;;;;;;;;;;;23.23;69.20;97109.53;180122;292;663878;-44
2022/08/29 00:10:00;;;;;;;;;;;;;;;23.21;69.21;97105.73;179952;293;662591;-46
2022/08/29 00:11:02;;;;;;;;;;;;;;;23.19;69.26;97105.27;180013;293;661807;-47
2022/08/29 00:12:04;;;;;;;;;;;;;;;23.19;69.29;97112.77;179990;293;661629;-46
2022/08/29 00:13:06;;;;;;;;;;;;;;;23.19;69.24;97108.62;179948;293;662623;-46
2022/08/29 00:14:08;;;;;;;;;;;;;;;23.18;69.28;97109.73;179810;293;661954;-47
2022/08/29 00:15:10;;;;;;;;;;;;;;;23.17;69.24;97113.66;180383;293;662667;-47
2022/08/29 00:16:12;;;;;;;;;;;;;;;23.14;69.26;97108.82;180242;293;663309;-48
2022/08/29 00:17:14;;;;;;;;;;;;;;;23.13;69.28;97112.16;180073;293;662205;-47
2022/08/29 00:18:16;;;;;;;;;;;;;;;23.13;69.25;97111.36;179990;293;662534;-45
2022/08/29 00:19:18;;;;;;;;;;;;;;;23.12;69.24;97115.27;179706;293;662015;-46
2022/08/29 00:20:20;;;;;;;;;;;;;;;23.11;69.22;97117.80;179652;293;663213;-46
2022/08/29 00:21:22;;;;;;;;;;;;;;;23.07;69.25;97110.20;180030;293;660654;-44
2022/08/29 00:22:24;;;;;;;;;;;;;;;23.06;69.26;97111.33;180406;292;661224;-46
2022/08/29 00:23:26;;;;;;;;;;;;;;;23.06;69.30;97114.09;180159;293;662756;-43
2022/08/29 00:24:28;;;;;;;;;;;;;;;23.04;69.25;97117.77;180043;293;662443;-45
2022/08/29 00:25:30;;;;;;;;;;;;;;;23.03;69.28;97118.92;179902;293;663721;-43
2022/08/29 00:26:32;;;;;;;;;;;;;;;23.03;69.31;97118.13;179786;293;662209;-44
2022/08/29 00:27:34;;;;;;;;;;;;;;;23.01;69.31;97119.84;179742;293;662213;-47
2022/08/29 00:28:36;;;;;;;;;;;;;;;23.00;69.33;97119.62;179629;293;660941;-43
2022/08/29 00:29:38;;;;;;;;;;;;;;;23.00;69.34;97117.42;179883;293;663942;-44
2022/08/29 00:30:40;;;;;;;;;;;;;;;22.98;69.35;97110.86;179925;293;663410;-45
2022/08/29 00:31:42;;;;;;;;;;;;;;;22.97;69.34;97112.02;180306;293;662812;-43
2022/08/29 00:32:44;;;;;;;;;;;;;;;22.96;69.38;97114.52;179835;293;662039;-46
2022/08/29 00:33:46;;;;;;;;;;;;;;;22.96;69.40;97111.75;179959;293;663734;-44
2022/08/29 00:34:48;;;;;;;;;;;;;;;22.95;69.41;97118.43;179686;293;662536;-48
2022/08/29 00:35:50;;;;;;;;;;;;;;;22.96;69.44;97125.57;179784;293;661504;-47
2022/08/29 00:36:53;;;;;;;;;;;;;;;22.94;69.39;97116.02;180074;293;663534;-45
2022/08/29 00:37:55;;;;;;;;;;;;;;;22.95;69.42;97116.24;180007;293;661671;-46
2022/08/29 00:38:57;;;;;;;;;;;;;;;22.94;69.41;97110.48;179644;293;663846;-44
2022/08/29 00:39:59;;;;;;;;;;;;;;;22.92;69.38;97113.59;180222;292;663857;-47
2022/08/29 00:41:01;;;;;;;;;;;;;;;22.92;69.39;97116.36;179661;293;659784;-45
2022/08/29 00:42:03;;;;;;;;;;;;;;;22.92;69.36;97114.16;180143;293;662500;-47
2022/08/29 00:43:05;;;;;;;;;;;;;;;22.90;69.35;97115.89;180192;292;662506;-47
2022/08/29 00:44:07;;;;;;;;;;;;;;;22.90;69.40;97113.70;180081;293;662736;-49
2022/08/29 00:45:09;;;;;;;;;;;;;;;22.89;69.39;97115.66;180089;293;662337;-48
2022/08/29 00:46:11;;;;;;;;;;;;;;;22.88;69.40;97111.28;180244;293;663204;-46
2022/08/29 00:47:13;;;;;;;;;;;;;;;22.87;69.43;97109.67;180350;293;662746;-47
2022/08/29 00:48:15;;;;;;;;;;;;;;;22.86;69.46;97110.79;180346;293;664252;-48
2022/08/29 00:49:17;;;;;;;;;;;;;;;22.86;69.51;97108.61;180448;292;661844;-46
2022/08/29 00:50:19;;;;;;;;;;;;;;;22.85;69.48;97106.42;180209;293;663221;-45
2022/08/29 00:51:21;;;;;;;;;;;;;;;22.85;69.47;97110.56;180117;293;662630;-48
2022/08/29 00:52:24;;;;;;;;;;;;;;;22.85;69.47;97110.56;180213;293;662461;-48
2022/08/29 00:53:25;;;;;;;;;;;;;;;22.83;69.48;97108.69;180116;293;662888;-46
2022/08/29 00:54:27;;;;;;;;;;;;;;;22.82;69.49;97105.69;180023;293;661103;-45
2022/08/29 00:55:30;;;;;;;;;;;;;;;22.82;69.50;97112.60;180364;293;660757;-45
2022/08/29 00:56:32;;;;;;;;;;;;;;;22.81;69.50;97102.70;180302;293;662031;-44
2022/08/29 00:57:34;;;;;;;;;;;;;;;22.81;69.47;97109.03;180075;293;664601;-48
2022/08/29 00:58:36;;;;;;;;;;;;;;;22.79;69.47;97100.85;179905;293;661411;-47
2022/08/29 00:59:38;;;;;;;;;;;;;;;22.79;69.48;97100.85;179803;293;663372;-47
2022/08/29 01:00:40;;;;;;;;;;;;;;;22.79;69.46;97103.61;179737;293;662875;-45
2022/08/29 01:01:42;;;;;;;;;;;;;;;22.78;69.44;97104.77;180053;292;662784;-46
2022/08/29 01:02:44;;;;;;;;;;;;;;;22.78;69.47;97100.62;179807;293;662712;-49
2022/08/29 01:03:46;;;;;;;;;;;;;;;22.78;69.48;97104.77;179961;293;662105;-45
2022/08/29 01:04:48;;;;;;;;;;;;;;;22.77;69.50;97097.63;180028;293;663975;-47
2022/08/29 01:05:50;;;;;;;;;;;;;;;22.77;69.44;97103.16;180174;293;663539;-45
2022/08/29 01:06:52;;;;;;;;;;;;;;;22.76;69.44;97102.92;180288;293;662245;-48
2022/08/29 01:07:54;;;;;;;;;;;;;;;22.75;69.46;97105.42;179791;293;663589;-47
2022/08/29 01:08:56;;;;;;;;;;;;;;;22.75;69.47;97102.66;180212;293;663517;-48
2022/08/29 01:09:58;;;;;;;;;;;;;;;22.74;69.46;97100.47;180235;293;664244;-47
2022/08/29 01:12:20;;;;;;;;;;;;;;;22.73;69.46;97104.38;180238;293;623012;-48
2022/08/29 01:13:22;;;;;;;;;;;;;;;22.72;69.50;97100.01;179772;293;662323;-44
2022/08/29 01:14:24;;;;;;;;;;;;;;;22.71;69.46;97101.16;180223;293;663221;-48
2022/08/29 01:15:26;;;;;;;;;;;;;;;22.71;69.46;97100.35;180206;293;663371;-46
2022/08/29 01:16:28;;;;;;;;;;;;;;;22.70;69.48;97102.88;180215;293;663341;-47
2022/08/29 01:17:30;;;;;;;;;;;;;;;22.69;69.44;97104.03;180152;293;663531;-44
2022/08/29 01:18:32;;;;;;;;;;;;;;;22.68;69.46;97096.89;180170;293;659977;-47
2022/08/29 01:19:34;;;;;;;;;;;;;;;22.67;69.44;97100.81;180241;293;662142;-49
2022/08/29 01:20:36;;;;;;;;;;;;;;;22.67;69.46;97099.42;180273;293;662763;-45
2022/08/29 01:21:38;;;;;;;;;;;;;;;22.67;69.51;97104.95;179921;292;662890;-46
2022/08/29 01:22:40;;;;;;;;;;;;;;;22.67;69.54;97105.76;180000;293;662852;-49
2022/08/29 01:23:42;;;;;;;;;;;;;;;22.68;69.54;97102.42;180041;293;662848;-50
2022/08/29 01:24:44;;;;;;;;;;;;;;;22.69;69.54;97113.13;180105;293;659764;-48
2022/08/29 01:25:47;;;;;;;;;;;;;;;22.67;69.53;97104.37;180221;293;661883;-47
2022/08/29 01:28:41;;;;;;;;;;;;;;;22.77;69.41;97115.59;185565;287;528638;-52
2022/08/29 01:29:43;;;;;;;;;;;;;;;22.74;69.37;97115.67;180235;292;661722;-51
2022/08/29 01:30:45;;;;;;;;;;;;;;;22.74;69.40;97119.01;179952;293;661546;-51
2022/08/29 01:31:47;;;;;;;;;;;;;;;22.70;69.86;97119.46;179926;293;662105;-50
2022/08/29 01:32:49;;;;;;;;;;;;;;;22.69;69.72;97121.42;180091;293;663760;-54
2022/08/29 01:34:44;;;;;;;;;;;;;;;22.66;69.60;97116.58;185890;286;528570;-53
2022/08/29 01:36:52;;;;;;;;;;;;;;;22.63;69.51;97114.47;185776;287;528333;-51
2022/08/29 01:37:54;;;;;;;;;;;;;;;22.61;69.56;97122.30;180650;292;661961;-52
2022/08/29 01:38:56;;;;;;;;;;;;;;;22.61;69.54;97125.05;180576;292;663859;-49
2022/08/29 01:39:58;;;;;;;;;;;;;;;22.59;69.52;97121.02;179820;292;662633;-53
2022/08/29 01:41:01;;;;;;;;;;;;;;;22.61;69.52;97125.63;180067;293;662971;-53
2022/08/29 01:42:03;;;;;;;;;;;;;;;22.60;69.51;97128.16;180333;292;662751;-50
2022/08/29 01:43:05;;;;;;;;;;;;;;;22.60;69.52;97129.55;180406;292;663089;-53
2022/08/29 01:44:07;;;;;;;;;;;;;;;22.60;69.68;97126.20;180644;292;662600;-50
2022/08/29 01:45:09;;;;;;;;;;;;;;;22.61;69.77;97125.05;180517;292;662234;-49
2022/08/29 01:46:11;;;;;;;;;;;;;;;22.62;69.75;97128.63;180424;292;660731;-53
2022/08/29 01:47:13;;;;;;;;;;;;;;;22.62;69.72;97128.63;179424;292;663371;-47
2022/08/29 01:48:15;;;;;;;;;;;;;;;22.64;69.70;97124.95;180081;293;661683;-48
2022/08/29 01:49:17;;;;;;;;;;;;;;;22.65;69.69;97123.80;180277;293;663547;-47
2022/08/29 01:50:19;;;;;;;;;;;;;;;22.67;69.67;97127.05;180172;293;662312;-51
2022/08/29 01:51:21;;;;;;;;;;;;;;;22.68;69.66;97119.00;180565;292;663832;-48
2022/08/29 01:52:22;;;;;;;;;;;;;;;22.70;69.62;97122.22;179823;293;663702;-51
2022/08/29 01:53:24;;;;;;;;;;;;;;;22.71;69.61;97116.36;180052;293;660558;-51
2022/08/29 01:54:26;;;;;;;;;;;;;;;22.73;69.57;97118.20;179656;293;662435;-47
2022/08/29 01:55:28;;;;;;;;;;;;;;;22.74;69.56;97117.63;180245;292;664347;-49
2022/08/29 01:56:30;;;;;;;;;;;;;;;22.75;69.52;97117.86;179769;293;662704;-48
2022/08/29 01:57:32;;;;;;;;;;;;;;;22.77;69.51;97112.82;179728;294;662877;-50
2022/08/29 01:58:34;;;;;;;;;;;;;;;22.79;69.47;97118.81;180607;292;663734;-48
2022/08/29 01:59:36;;;;;;;;;;;;;;;22.81;69.39;97120.66;180702;292;662686;-48
2022/08/29 02:00:38;;;;;;;;;;;;;;;22.83;69.34;97112.02;180612;292;662693;-50
2022/08/29 02:01:40;;;;;;;;;;;;;;;22.84;69.33;97110.33;180045;293;662036;-49
2022/08/29 02:02:42;;;;;;;;;;;;;;;22.85;69.29;97111.94;180302;293;663505;-48
2022/08/29 02:03:44;;;;;;;;;;;;;;;22.86;69.27;97107.22;180289;293;663685;-51
2022/08/29 02:04:47;;;;;;;;;;;;;;;22.87;69.22;97108.87;180521;292;663312;-47
2022/08/29 02:05:49;;;;;;;;;;;;;;;22.88;69.19;97105.76;179670;293;661701;-48
2022/08/29 02:06:51;;;;;;;;;;;;;;;22.90;69.14;97110.94;179824;293;663865;-48
2022/08/29 02:07:53;;;;;;;;;;;;;;;22.90;69.11;97110.37;180179;292;662292;-50
2022/08/29 02:08:55;;;;;;;;;;;;;;;22.91;69.09;97109.22;179884;293;661394;-50
2022/08/29 02:09:57;;;;;;;;;;;;;;;22.92;69.06;97108.64;180229;293;661649;-48
2022/08/29 02:10:59;;;;;;;;;;;;;;;22.91;69.03;97107.83;180694;291;662532;-52
2022/08/29 02:12:06;;;;;;;;;;;;;;;22.92;69.01;97110.83;179479;293;663787;-49
2022/08/29 02:13:05;;;;;;;;;;;;;;;22.93;68.98;97111.63;179933;293;632816;-49
2022/08/29 02:14:07;;;;;;;;;;;;;;;22.93;68.95;97113.82;180346;292;660505;-47
2022/08/29 02:15:08;;;;;;;;;;;;;;;22.92;68.90;97109.45;180918;292;661956;-49
2022/08/29 02:16:10;;;;;;;;;;;;;;;22.92;68.88;97110.83;180608;292;662970;-49
2022/08/29 02:17:12;;;;;;;;;;;;;;;22.93;68.87;97116.59;179676;293;660479;-50
2022/08/29 02:18:15;;;;;;;;;;;;;;;22.93;68.81;97120.73;180177;293;660867;-49
2022/08/29 02:19:17;;;;;;;;;;;;;;;22.93;68.82;97117.97;180152;293;661490;-47
2022/08/29 02:20:19;;;;;;;;;;;;;;;22.93;68.81;97118.55;180313;293;662505;-49
2022/08/29 02:21:21;;;;;;;;;;;;;;;22.91;68.80;97114.74;180149;293;663642;-49
2022/08/29 02:22:22;;;;;;;;;;;;;;;22.92;68.78;97113.59;180532;292;662861;-47
2022/08/29 02:23:24;;;;;;;;;;;;;;;22.91;68.79;97116.12;180762;292;660659;-49
2022/08/29 02:24:26;;;;;;;;;;;;;;;22.91;68.76;97116.12;180683;292;661915;-47
2022/08/29 02:25:40;;;;;;;;;;;;;;;22.91;68.78;97116.70;181258;291;664187;-48
2022/08/29 02:26:42;;;;;;;;;;;;;;;22.90;68.79;97118.66;180792;292;662116;-47
2022/08/29 02:27:44;;;;;;;;;;;;;;;22.90;68.75;97120.04;179433;293;661271;-53
2022/08/29 02:28:46;;;;;;;;;;;;;;;22.90;68.77;97123.38;179575;293;663470;-47
2022/08/29 02:29:48;;;;;;;;;;;;;;;22.89;68.74;97125.34;180419;292;662532;-48
2022/08/29 02:30:51;;;;;;;;;;;;;;;22.89;68.74;97123.95;179504;293;659810;-47
2022/08/29 02:31:53;;;;;;;;;;;;;;;22.88;68.72;97124.30;179965;293;663014;-49
2022/08/29 02:32:55;;;;;;;;;;;;;;;22.87;68.75;97123.48;180430;292;662078;-52
2022/08/29 02:33:57;;;;;;;;;;;;;;;22.88;68.73;97121.53;180263;292;660031;-49
2022/08/29 02:34:59;;;;;;;;;;;;;;;22.87;68.75;97124.88;179550;293;664051;-47
2022/08/29 02:36:01;;;;;;;;;;;;;;;22.85;68.73;97125.76;179903;293;663892;-51
2022/08/29 02:37:03;;;;;;;;;;;;;;;22.86;68.73;97130.14;179685;293;663959;-47
2022/08/29 02:38:05;;;;;;;;;;;;;;;22.84;68.70;97126.91;179257;294;661042;-49
2022/08/29 02:39:07;;;;;;;;;;;;;;;22.84;68.72;97128.30;179633;294;662583;-48
2022/08/29 02:40:09;;;;;;;;;;;;;;;22.84;68.69;97127.48;179908;294;663931;-49
2022/08/29 02:41:11;;;;;;;;;;;;;;;22.83;68.68;97130.80;179970;294;663723;-51
2022/08/29 02:42:13;;;;;;;;;;;;;;;22.82;68.69;97131.95;179940;294;661906;-47
2022/08/29 02:43:16;;;;;;;;;;;;;;;22.81;68.69;97137.23;179732;294;661700;-47
2022/08/29 02:44:19;;;;;;;;;;;;;;;22.82;68.67;97136.09;180173;293;662859;-48
2022/08/29 02:45:21;;;;;;;;;;;;;;;22.80;68.71;97133.67;179452;294;661165;-48
2022/08/29 02:46:23;;;;;;;;;;;;;;;22.80;68.71;97130.09;179781;294;662202;-47
2022/08/29 02:47:25;;;;;;;;;;;;;;;22.80;68.71;97137.01;179908;293;662298;-49
2022/08/29 02:48:27;;;;;;;;;;;;;;;22.78;68.69;97131.83;179373;294;662827;-49
2022/08/29 02:49:28;;;;;;;;;;;;;;;22.78;68.69;97132.40;179463;294;660881;-50
2022/08/29 02:50:30;;;;;;;;;;;;;;;22.77;68.69;97138.50;179694;293;661946;-48
2022/08/29 02:51:32;;;;;;;;;;;;;;;22.77;68.67;97130.78;180074;293;663385;-51
2022/08/29 02:52:34;;;;;;;;;;;;;;;22.76;68.69;97135.50;179887;293;663941;-48
2022/08/29 02:53:36;;;;;;;;;;;;;;;22.75;68.69;97138.00;179088;294;660662;-48
2022/08/29 02:54:38;;;;;;;;;;;;;;;22.75;68.69;97141.34;179592;294;663390;-47
2022/08/29 02:55:40;;;;;;;;;;;;;;;22.74;68.68;97138.34;179688;293;664404;-51
2022/08/29 02:56:42;;;;;;;;;;;;;;;22.74;68.69;97139.73;179291;294;662508;-48
2022/08/29 02:57:44;;;;;;;;;;;;;;;22.73;68.72;97138.12;179577;294;662255;-48
2022/08/29 02:58:46;;;;;;;;;;;;;;;22.73;68.70;97138.92;180011;293;662759;-47
2022/08/29 02:59:48;;;;;;;;;;;;;;;22.73;68.70;97137.54;180466;291;663474;-47
2022/08/29 03:00:50;;;;;;;;;;;;;;;22.71;68.70;97132.12;180070;291;661869;-48
2022/08/29 03:01:52;;;;;;;;;;;;;;;22.72;68.69;97132.36;180418;293;661650;-47
2022/08/29 03:02:54;;;;;;;;;;;;;;;22.71;68.70;97134.89;180211;293;661634;-49
2022/08/29 03:03:56;;;;;;;;;;;;;;;22.71;68.69;97132.12;180038;293;665039;-51
2022/08/29 03:04:58;;;;;;;;;;;;;;;22.70;68.71;97125.80;180040;293;662749;-47
2022/08/29 03:06:00;;;;;;;;;;;;;;;22.69;68.67;97120.61;179885;293;663816;-51
2022/08/29 03:07:04;;;;;;;;;;;;;;;22.69;68.69;97121.98;179171;294;660754;-49
2022/08/29 03:08:06;;;;;;;;;;;;;;;22.67;68.71;97109.90;179211;295;661963;-47
2022/08/29 03:09:08;;;;;;;;;;;;;;;22.67;68.70;97132.00;179492;293;661868;-50
2022/08/29 03:10:10;;;;;;;;;;;;;;;22.67;68.72;97120.15;179397;294;661181;-49
2022/08/29 03:11:12;;;;;;;;;;;;;;;22.66;68.70;97122.67;179403;294;661650;-48
2022/08/29 03:12:14;;;;;;;;;;;;;;;22.65;68.69;97120.48;180037;293;660056;-49
2022/08/29 03:13:16;;;;;;;;;;;;;;;22.65;68.70;97132.92;179562;294;663597;-47
2022/08/29 03:14:18;;;;;;;;;;;;;;;22.65;68.70;97126.56;179676;294;664308;-50
2022/08/29 03:15:20;;;;;;;;;;;;;;;22.64;68.72;97128.52;179960;294;662890;-48
2022/08/29 03:16:22;;;;;;;;;;;;;;;22.63;68.72;97130.23;179835;294;662912;-49
2022/08/29 03:17:24;;;;;;;;;;;;;;;22.63;68.74;97121.95;179632;294;663962;-47
2022/08/29 03:18:26;;;;;;;;;;;;;;;22.62;68.74;97127.24;179690;294;661441;-48
2022/08/29 03:19:28;;;;;;;;;;;;;;;22.62;68.74;97125.86;179676;294;660790;-47
2022/08/29 03:20:30;;;;;;;;;;;;;;;22.61;68.75;97124.25;179879;294;663365;-48
2022/08/29 03:21:32;;;;;;;;;;;;;;;22.62;68.76;97125.86;180000;294;664583;-49
2022/08/29 03:22:34;;;;;;;;;;;;;;;22.62;68.79;97128.05;179785;293;662123;-50
2022/08/29 03:23:36;;;;;;;;;;;;;;;22.61;68.80;97122.86;179100;294;662515;-47
2022/08/29 03:24:38;;;;;;;;;;;;;;;22.59;68.80;97121.02;179590;294;663648;-48
2022/08/29 03:25:39;;;;;;;;;;;;;;;22.60;68.80;97123.44;179476;294;660663;-49
2022/08/29 03:26:41;;;;;;;;;;;;;;;22.59;68.81;97125.97;179807;293;662847;-49
2022/08/29 03:27:43;;;;;;;;;;;;;;;22.58;68.82;97124.94;179331;294;663534;-48
2022/08/29 03:28:45;;;;;;;;;;;;;;;22.58;68.83;97122.17;179707;294;661280;-51
2022/08/29 03:29:47;;;;;;;;;;;;;;;22.58;68.82;97130.45;179803;294;661645;-52
2022/08/29 03:30:49;;;;;;;;;;;;;;;22.57;68.84;97131.61;180174;293;663993;-47
2022/08/29 03:31:52;;;;;;;;;;;;;;;22.57;68.83;97128.84;178998;294;662093;-53
2022/08/29 03:32:55;;;;;;;;;;;;;;;22.56;68.83;97123.09;179416;294;662376;-49
2022/08/29 03:33:57;;;;;;;;;;;;;;;22.56;68.85;97126.66;180215;293;660128;-48
2022/08/29 03:34:59;;;;;;;;;;;;;;;22.55;68.83;97123.66;180496;293;663506;-49
2022/08/29 03:36:01;;;;;;;;;;;;;;;22.55;68.86;97122.85;180292;293;663814;-51
2022/08/29 03:37:03;;;;;;;;;;;;;;;22.53;68.84;97123.97;180244;293;660601;-49
2022/08/29 03:38:04;;;;;;;;;;;;;;;22.53;68.85;97129.49;179156;294;662770;-51
2022/08/29 03:39:06;;;;;;;;;;;;;;;22.52;68.82;97122.36;179507;294;661652;-50
2022/08/29 03:40:08;;;;;;;;;;;;;;;22.52;68.83;97123.73;179856;294;663975;-48
2022/08/29 03:41:11;;;;;;;;;;;;;;;22.52;68.79;97120.97;179616;294;661148;-49
2022/08/29 03:42:13;;;;;;;;;;;;;;;22.52;68.79;97123.73;179786;293;660765;-48
2022/08/29 03:43:15;;;;;;;;;;;;;;;22.51;68.79;97116.60;179181;294;663010;-47
2022/08/29 03:44:17;;;;;;;;;;;;;;;22.51;68.80;97124.88;179527;294;663874;-47
2022/08/29 03:45:18;;;;;;;;;;;;;;;22.51;68.81;97126.27;179525;294;660706;-48
2022/08/29 03:46:20;;;;;;;;;;;;;;;22.51;68.81;97126.27;180444;291;662410;-50
2022/08/29 03:47:22;;;;;;;;;;;;;;;22.49;68.79;97128.56;180703;291;663826;-52
2022/08/29 03:48:24;;;;;;;;;;;;;;;22.50;68.79;97129.38;180520;291;661666;-49
2022/08/29 03:49:26;;;;;;;;;;;;;;;22.50;68.81;97128.80;178927;294;661071;-47
2022/08/29 03:50:28;;;;;;;;;;;;;;;22.48;68.79;97129.71;179447;294;664013;-47
2022/08/29 03:51:30;;;;;;;;;;;;;;;22.48;68.79;97125.57;179625;294;663625;-47
2022/08/29 03:52:32;;;;;;;;;;;;;;;22.49;68.78;97127.19;179568;294;662003;-50
2022/08/29 03:53:34;;;;;;;;;;;;;;;22.48;68.79;97132.47;179691;294;663839;-49
2022/08/29 03:54:36;;;;;;;;;;;;;;;22.48;68.83;97133.86;179978;294;661751;-48
2022/08/29 03:55:38;;;;;;;;;;;;;;;22.47;68.81;97130.86;179939;294;662124;-53
2022/08/29 03:56:40;;;;;;;;;;;;;;;22.48;68.83;97133.05;179825;294;662638;-52
2022/08/29 03:57:42;;;;;;;;;;;;;;;22.46;68.79;97129.25;179887;293;664019;-49
2022/08/29 03:58:44;;;;;;;;;;;;;;;22.47;68.78;97130.86;180056;293;662010;-50
2022/08/29 03:59:46;;;;;;;;;;;;;;;22.46;68.75;97133.39;180240;293;661663;-49
2022/08/29 04:00:48;;;;;;;;;;;;;;;22.46;68.75;97132.01;180500;293;661164;-50
2022/08/29 04:01:50;;;;;;;;;;;;;;;22.46;68.74;97130.63;180405;293;663082;-50
2022/08/29 04:02:54;;;;;;;;;;;;;;;22.46;68.73;97136.73;180157;293;663904;-48
2022/08/29 04:03:56;;;;;;;;;;;;;;;22.45;68.77;97131.77;179279;294;664055;-52
2022/08/29 04:05:07;;;;;;;;;;;;;;;22.45;68.76;97133.73;179398;294;664242;-50
2022/08/29 04:06:09;;;;;;;;;;;;;;;22.45;68.77;97135.92;179353;294;662734;-51
2022/08/29 04:07:16;;;;;;;;;;;;;;;22.44;68.76;97132.12;179330;294;663296;-47
2022/08/29 04:08:14;;;;;;;;;;;;;;;22.44;68.77;97134.30;180116;293;632772;-49
2022/08/29 04:09:17;;;;;;;;;;;;;;;22.43;68.77;97135.42;180227;293;662505;-48
2022/08/29 04:10:19;;;;;;;;;;;;;;;22.43;68.76;97132.66;180062;293;662475;-51
2022/08/29 04:11:22;;;;;;;;;;;;;;;22.43;68.77;97136.80;179526;294;663848;-48
2022/08/29 04:12:24;;;;;;;;;;;;;;;22.42;68.79;97135.19;179544;294;661960;-49
2022/08/29 04:13:26;;;;;;;;;;;;;;;22.43;68.76;97140.14;179904;293;662653;-47
2022/08/29 04:14:29;;;;;;;;;;;;;;;22.42;68.78;97137.95;179626;294;663724;-47
2022/08/29 04:15:34;;;;;;;;;;;;;;;22.41;68.74;97137.72;179525;294;662338;-51
2022/08/29 04:16:37;;;;;;;;;;;;;;;22.41;68.74;97136.91;179406;294;660112;-49
2022/08/29 04:17:39;;;;;;;;;;;;;;;22.41;68.73;97140.48;179773;293;663876;-49
2022/08/29 04:18:41;;;;;;;;;;;;;;;22.40;68.75;97134.72;180033;293;660432;-51
2022/08/29 04:19:43;;;;;;;;;;;;;;;22.39;68.74;97138.63;180249;293;662567;-47
2022/08/29 04:20:45;;;;;;;;;;;;;;;22.39;68.72;97142.77;180363;293;662730;-47
2022/08/29 04:21:47;;;;;;;;;;;;;;;22.38;68.74;97135.64;180413;293;661974;-49
2022/08/29 04:22:49;;;;;;;;;;;;;;;22.37;68.72;97135.41;179063;294;661912;-50
2022/08/29 04:23:51;;;;;;;;;;;;;;;22.38;68.74;97142.54;179434;294;661868;-48
2022/08/29 04:24:53;;;;;;;;;;;;;;;22.38;68.72;97137.59;180058;293;663977;-48
2022/08/29 04:25:55;;;;;;;;;;;;;;;22.38;68.72;97145.88;179149;293;661446;-49
2022/08/29 04:26:57;;;;;;;;;;;;;;;22.38;68.73;97146.69;179914;293;663074;-48
2022/08/29 04:27:59;;;;;;;;;;;;;;;22.36;68.72;97143.45;179478;293;663819;-51
2022/08/29 04:29:01;;;;;;;;;;;;;;;22.37;68.70;97141.50;179679;291;663587;-49
2022/08/29 04:30:03;;;;;;;;;;;;;;;22.38;68.68;97147.25;179832;294;660460;-52
2022/08/29 04:31:05;;;;;;;;;;;;;;;22.36;68.67;97139.31;179593;294;663658;-51
2022/08/29 04:32:07;;;;;;;;;;;;;;;22.36;68.65;97147.59;179561;294;664862;-47
2022/08/29 04:33:09;;;;;;;;;;;;;;;22.36;68.65;97144.83;179665;294;662395;-53
2022/08/29 04:34:11;;;;;;;;;;;;;;;22.34;68.65;97141.61;178839;295;662019;-51
2022/08/29 04:35:13;;;;;;;;;;;;;;;22.35;68.67;97150.13;181395;291;661770;-48
2022/08/29 04:36:15;;;;;;;;;;;;;;;22.34;68.66;97147.12;179958;293;662699;-49
2022/08/29 04:37:17;;;;;;;;;;;;;;;22.34;68.67;97150.47;179885;293;662571;-47
2022/08/29 04:38:19;;;;;;;;;;;;;;;22.33;68.63;97148.81;180068;293;662672;-49
2022/08/29 04:39:20;;;;;;;;;;;;;;;22.33;68.64;97160.70;180278;292;662119;-48
2022/08/29 04:40:22;;;;;;;;;;;;;;;22.32;68.64;97157.67;180206;292;663902;-47
2022/08/29 04:41:24;;;;;;;;;;;;;;;22.32;68.63;97154.91;180887;292;659780;-50
2022/08/29 04:42:26;;;;;;;;;;;;;;;22.32;68.62;97158.25;180911;292;662163;-48
2022/08/29 04:43:28;;;;;;;;;;;;;;;22.31;68.62;97161.58;180782;292;665171;-49
2022/08/29 04:44:30;;;;;;;;;;;;;;;22.31;68.62;97161.58;180831;292;662194;-49
2022/08/29 04:45:35;;;;;;;;;;;;;;;22.31;68.62;97162.96;180563;292;662918;-49
2022/08/29 04:46:37;;;;;;;;;;;;;;;22.32;68.63;97163.77;180594;292;663523;-48
2022/08/29 04:47:39;;;;;;;;;;;;;;;22.31;68.62;97167.68;180945;292;662833;-52
2022/08/29 04:48:41;;;;;;;;;;;;;;;22.31;68.62;97162.96;180151;292;661434;-52
2022/08/29 04:49:43;;;;;;;;;;;;;;;22.30;68.62;97166.88;180954;292;664166;-51
2022/08/29 04:50:45;;;;;;;;;;;;;;;22.30;68.59;97165.49;180668;292;662703;-52
2022/08/29 04:51:47;;;;;;;;;;;;;;;22.30;68.58;97166.88;180596;292;661786;-50
2022/08/29 04:52:49;;;;;;;;;;;;;;;22.30;68.58;97163.30;180495;292;662061;-49
2022/08/29 04:53:51;;;;;;;;;;;;;;;22.31;68.58;97171.25;180307;292;662889;-52
2022/08/29 04:54:53;;;;;;;;;;;;;;;22.29;68.57;97163.88;180323;292;661756;-48
2022/08/29 04:55:55;;;;;;;;;;;;;;;22.29;68.57;97163.88;180253;292;660861;-53
2022/08/29 04:56:57;;;;;;;;;;;;;;;22.30;68.58;97166.06;180396;292;661931;-50
2022/08/29 04:57:59;;;;;;;;;;;;;;;22.29;68.58;97172.16;180454;292;660253;-50
2022/08/29 04:59:01;;;;;;;;;;;;;;;22.29;68.57;97169.40;180321;292;662171;-53
2022/08/29 05:00:04;;;;;;;;;;;;;;;22.29;68.56;97173.55;180534;292;662036;-51
2022/08/29 05:01:06;;;;;;;;;;;;;;;22.28;68.56;97167.78;180592;292;660616;-48
2022/08/29 05:02:08;;;;;;;;;;;;;;;22.28;68.56;97173.31;180203;292;664099;-47
2022/08/29 05:03:10;;;;;;;;;;;;;;;22.28;68.54;97173.31;180806;291;663404;-50
2022/08/29 05:04:12;;;;;;;;;;;;;;;22.28;68.52;97171.92;179807;293;661264;-46
2022/08/29 05:05:14;;;;;;;;;;;;;;;22.28;68.54;97176.06;179806;293;662191;-49
2022/08/29 05:06:16;;;;;;;;;;;;;;;22.27;68.52;97178.59;179921;293;661483;-48
2022/08/29 05:07:19;;;;;;;;;;;;;;;22.27;68.54;97173.07;180017;293;662237;-48
2022/08/29 05:08:22;;;;;;;;;;;;;;;22.26;68.51;97176.98;179448;293;662036;-49
2022/08/29 05:09:24;;;;;;;;;;;;;;;22.27;68.50;97175.02;179884;293;664283;-51
2022/08/29 05:10:26;;;;;;;;;;;;;;;22.25;68.50;97175.36;180422;292;662222;-49
2022/08/29 05:11:27;;;;;;;;;;;;;;;22.26;68.52;97179.73;179635;293;662589;-53
2022/08/29 05:12:29;;;;;;;;;;;;;;;22.25;68.50;97180.89;179702;293;663800;-49
2022/08/29 05:13:32;;;;;;;;;;;;;;;22.24;68.50;97184.80;180284;293;661415;-52
2022/08/29 05:14:33;;;;;;;;;;;;;;;22.25;68.51;97185.03;180432;293;662626;-49
2022/08/29 05:15:35;;;;;;;;;;;;;;;22.24;68.47;97180.66;180371;293;662350;-49
2022/08/29 05:16:37;;;;;;;;;;;;;;;22.26;68.47;97191.36;179974;293;663886;-49
2022/08/29 05:17:39;;;;;;;;;;;;;;;22.24;68.46;97184.80;179969;293;662802;-50
2022/08/29 05:18:43;;;;;;;;;;;;;;;22.23;68.46;97181.23;180390;292;660899;-50
2022/08/29 05:19:45;;;;;;;;;;;;;;;22.24;68.47;97183.41;180542;292;661202;-52
2022/08/29 05:20:47;;;;;;;;;;;;;;;22.25;68.48;97192.50;180177;292;662875;-51
2022/08/29 05:21:55;;;;;;;;;;;;;;;22.23;68.47;97181.23;179824;293;660998;-51
2022/08/29 05:22:53;;;;;;;;;;;;;;;22.24;68.47;97186.17;180291;293;632838;-49
2022/08/29 05:23:55;;;;;;;;;;;;;;;22.23;68.49;97189.51;180065;293;661412;-52